Mn Pelican — FMLR — position and weather

sailwx.info

Track history (hours):
 
Tides and Currents Weather Stations Pressure Air Temp Water Temp Dewpoint Dewpoint Depression Visibility Wind Speed Wind Dir Waves Ship Positions

Mn Pelican

Last reported at 2018-Apr-26 21:00 UTC. Time now 2018-Apr-26 21:13 UTC.
Position N 43°33' W 003°08'.

Length 155 m; draft 6.2 m.

Type: Ship. MMSI: 228315700.

Date/timePositionNaut miles runAvg speedWind from/ knotsBaromVisibWave heightAir tempDewpointWater temp
2018-Apr-26 21:00N 43°33' W 003°08'816.0
2018-Apr-26 20:30N 43°25' W 003°06'1 2.4
2018-Apr-26 20:00N 43°26' W 003°07'1 1.8
2018-Apr-26 19:30N 43°27' W 003°06'1 2.1
2018-Apr-26 19:01N 43°26' W 003°04'4 7.8
2018-Apr-26 18:29N 43°22' W 003°04'1 2.0
2018-Apr-26 18:00N 43°21' W 003°04'0 0.0
2018-Apr-26 17:27N 43°21' W 003°04'0 0.0
2018-Apr-26 16:57N 43°21' W 003°04'0 0.0
2018-Apr-26 15:27N 43°21' W 003°04'0 0.0
2018-Apr-26 13:01N 43°21' W 003°04'0 0.0
2018-Apr-26 12:43N 43°21' W 003°04'0 0.0
2018-Apr-26 12:25N 43°21' W 003°04'0 0.0
2018-Apr-26 12:00N 43°21' W 003°04'0 0.0
2018-Apr-26 11:31N 43°21' W 003°04'1 1.7
2018-Apr-26 11:00N 43°22' W 003°03'612.3
2018-Apr-26 10:30N 43°27' W 003°07'816.7
2018-Apr-26 10:00N 43°35' W 003°12'816.4
2018-Apr-26 09:30N 43°43' W 003°16'38114.4
2018-Apr-25 07:05N 50°01' W 004°18'1718.0
2018-Apr-25 06:09N 50°05' W 003°52'618.0
2018-Apr-25 05:47N 50°06' W 003°42'517.7
2018-Apr-25 05:30N 50°08' W 003°35'917.7
2018-Apr-25 05:00N 50°11' W 003°22'917.5
2018-Apr-25 04:30N 50°14' W 003°09'917.2
2018-Apr-25 04:00N 50°16' W 002°56'816.7
2018-Apr-25 03:30N 50°18' W 002°44'2516.6
2018-Apr-25 01:59N 50°27' W 002°06'816.2
2018-Apr-25 01:30N 50°32' W 001°56'714.5
2018-Apr-25 01:00N 50°39' W 001°55'5 0.7
2018-Apr-24 18:29N 50°42' W 001°59'1 2.3
2018-Apr-24 17:59N 50°42' W 001°58'5 9.7
2018-Apr-24 17:26N 50°38' W 001°53'614.7
2018-Apr-24 17:00N 50°31' W 001°53'2115.8
2018-Apr-24 15:40N 50°14' W 002°12'23316.0
2018-Apr-24 01:06N 46°49' W 005°01'1818.9
2018-Apr-24 00:08N 46°32' W 004°51'518.9
2018-Apr-23 23:54N 46°28' W 004°49'16919.1
2018-Apr-23 15:03N 43°51' W 003°21'318.9
2018-Apr-23 14:55N 43°49' W 003°20'718.0
2018-Apr-23 14:30N 43°42' W 003°16'918.0
2018-Apr-23 14:00N 43°34' W 003°11'1019.5
2018-Apr-23 13:30N 43°25' W 003°06'4 7.8
2018-Apr-23 13:00N 43°21' W 003°04'0 0.2
2018-Apr-23 12:28N 43°21' W 003°04'0 0.0
2018-Apr-23 11:57N 43°21' W 003°04'0 0.0
2018-Apr-23 11:27N 43°21' W 003°04'0 0.0
2018-Apr-23 10:57N 43°21' W 003°04'0 0.0
2018-Apr-23 09:57N 43°21' W 003°04'0 0.0
2018-Apr-23 09:26N 43°21' W 003°04'0 0.0
2018-Apr-23 08:56N 43°21' W 003°04'0 0.0
2018-Apr-23 08:26N 43°21' W 003°04'0 0.0
2018-Apr-23 07:56N 43°21' W 003°04'0 0.0
2018-Apr-23 07:26N 43°21' W 003°04'0 0.0
2018-Apr-23 06:55N 43°21' W 003°04'0 0.0
2018-Apr-23 06:25N 43°21' W 003°04'0 0.0
2018-Apr-23 05:55N 43°21' W 003°04'0 0.0
2018-Apr-23 05:30N 43°21' W 003°04'1 2.2
2018-Apr-23 05:00N 43°22' W 003°03'612.2
2018-Apr-23 04:30N 43°27' W 003°07'816.0
2018-Apr-23 04:00N 43°35' W 003°09'4 7.7
2018-Apr-23 03:30N 43°38' W 003°11'612.2
2018-Apr-23 03:01N 43°39' W 003°03'815.1
2018-Apr-23 02:30N 43°39' W 003°13'815.2
2018-Apr-23 01:58N 43°46' W 003°18'21314.1
2018-Apr-22 10:48N 47°04' W 005°10'815.9
2018-Apr-22 10:19N 47°12' W 005°14'516.0
2018-Apr-22 09:59N 47°17' W 005°17'816.2
2018-Apr-22 09:30N 47°24' W 005°21'916.0
2018-Apr-22 08:58N 47°32' W 005°25'9213.1
2018-Apr-22 01:55N 49°04' W 005°24'816.1
2018-Apr-22 01:24N 49°09' W 005°14'615.9
2018-Apr-22 01:01N 49°12' W 005°06'815.5
2018-Apr-22 00:30N 49°16' W 004°55'1115.3
2018-Apr-21 23:46N 49°22' W 004°40'415.1
2018-Apr-21 23:30N 49°24' W 004°35'914.7
2018-Apr-21 22:53N 49°28' W 004°23'714.3
2018-Apr-21 22:22N 49°32' W 004°13'514.1
2018-Apr-21 22:00N 49°34' W 004°06'1814.0
2018-Apr-21 20:43N 49°47' W 003°46'814.0
2018-Apr-21 20:07N 49°52' W 003°36'214.3
2018-Apr-21 19:59N 49°53' W 003°34'714.7
2018-Apr-21 19:30N 49°58' W 003°25'815.5
2018-Apr-21 19:01N 50°02' W 003°15'816.2
2018-Apr-21 18:31N 50°05' W 003°04'816.8
2018-Apr-21 18:00N 50°10' W 002°52'917.3
2018-Apr-21 17:28N 50°14' W 002°40'817.6
2018-Apr-21 17:00N 50°18' W 002°29'917.7
2018-Apr-21 16:29N 50°23' W 002°16'917.4
2018-Apr-21 15:56N 50°28' W 002°03'716.7
2018-Apr-21 15:31N 50°33' W 001°56'612.7
2018-Apr-21 15:00N 50°39' W 001°55'4 7.6
2018-Apr-21 14:28N 50°42' W 001°59'0 0.0
2018-Apr-21 13:58N 50°42' W 001°59'0 0.0
2018-Apr-21 13:28N 50°42' W 001°59'0 0.0
2018-Apr-21 12:52N 50°42' W 001°59'0 0.0
2018-Apr-21 12:21N 50°42' W 001°59'0 0.0
2018-Apr-21 11:57N 50°42' W 001°59'0 0.0
2018-Apr-21 11:27N 50°42' W 001°59'0 0.0
2018-Apr-21 10:51N 50°42' W 001°59'0 0.0
2018-Apr-21 10:15N 50°42' W 001°59'0 0.0
2018-Apr-21 09:32N 50°42' W 001°59'0 0.0
2018-Apr-21 09:27N 50°42' W 001°59'0 0.0
2018-Apr-21 09:01N 50°42' W 001°59'0 0.4
2018-Apr-21 08:30N 50°42' W 001°59'4 8.3
2018-Apr-21 07:58N 50°39' W 001°55'4 7.7
2018-Apr-21 07:31N 50°36' W 001°52'4 8.0
2018-Apr-21 07:00N 50°32' W 001°52'3 6.7
2018-Apr-21 06:30N 50°30' W 001°56'3 6.3
2018-Apr-21 06:01N 50°28' W 002°00'510.7
2018-Apr-21 05:30N 50°23' W 002°02'5 9.1
2018-Apr-21 05:01N 50°19' W 002°04'4 7.9
2018-Apr-21 04:28N 50°15' W 002°07'4 7.9
2018-Apr-21 04:01N 50°11' W 002°09'611.6
2018-Apr-21 03:29N 50°06' W 002°13'715.1
2018-Apr-21 03:00N 49°59' W 002°18'1113.6
2018-Apr-21 02:12N 49°54' W 002°33'414.2
2018-Apr-21 01:56N 49°53' W 002°39'714.5
2018-Apr-21 01:27N 49°51' W 002°49'714.6
2018-Apr-21 01:00N 49°49' W 002°59'2515.0
2018-Apr-20 23:18N 49°36' W 003°33'515.1
2018-Apr-20 22:57N 49°33' W 003°39'715.1
2018-Apr-20 22:30N 49°30' W 003°48'11813.9
2018-Apr-20 14:01N 47°58' W 005°40'015.2
2018-Apr-20 14:00N 47°57' W 005°40'815.4
2018-Apr-20 13:30N 47°50' W 005°37'1215.3
2018-Apr-20 12:42N 47°39' W 005°31'315.3
2018-Apr-20 12:30N 47°36' W 005°29'915.2
2018-Apr-20 11:53N 47°27' W 005°24'615.0
2018-Apr-20 11:30N 47°22' W 005°21'815.0
2018-Apr-20 11:00N 47°15' W 005°17'2915.1
2018-Apr-20 09:04N 46°48' W 005°00'114.7
2018-Apr-20 09:00N 46°47' W 004°60'814.8
2018-Apr-20 08:29N 46°40' W 004°56'715.0
2018-Apr-20 08:00N 46°33' W 004°52'714.7
2018-Apr-20 07:30N 46°26' W 004°48'714.7
2018-Apr-20 07:00N 46°19' W 004°44'714.4
2018-Apr-20 06:30N 46°13' W 004°40'17515.2
2018-Apr-19 19:00N 43°31' W 003°09'715.0
2018-Apr-19 18:30N 43°24' W 003°05'2 1.3
2018-Apr-19 16:43N 43°21' W 003°04'0 0.0
2018-Apr-19 16:19N 43°21' W 003°04'0 0.0
2018-Apr-19 14:36N 43°21' W 003°04'0 0.0
2018-Apr-19 14:30N 43°21' W 003°04'0 0.0
2018-Apr-19 14:00N 43°21' W 003°04'0 0.0
2018-Apr-19 11:40N 43°21' W 003°04'0 0.0
2018-Apr-19 11:25N 43°21' W 003°04'1 2.1
2018-Apr-19 10:48N 43°23' W 003°05'413.8
2018-Apr-19 10:30N 43°26' W 003°07'39513.9
2018-Apr-18 06:02N 49°57' W 004°38'313.8
2018-Apr-18 05:49N 49°58' W 004°34'814.1
2018-Apr-18 05:15N 49°59' W 004°21'314.5
2018-Apr-18 05:00N 50°00' W 004°16'814.3
2018-Apr-18 04:26N 50°03' W 004°04'715.1
2018-Apr-18 04:00N 50°05' W 003°54'816.9
2018-Apr-18 03:30N 50°07' W 003°42'917.8
2018-Apr-18 03:00N 50°09' W 003°28'918.1
2018-Apr-18 02:30N 50°12' W 003°15'918.1
2018-Apr-18 02:00N 50°15' W 003°02'917.9
2018-Apr-18 01:30N 50°18' W 002°48'3216.5
2018-Apr-17 23:35N 50°28' W 002°01'213.9
2018-Apr-17 23:27N 50°29' W 001°59'714.6
2018-Apr-17 23:00N 50°35' W 001°54'612.1
2018-Apr-17 22:29N 50°41' W 001°56'3 5.6
2018-Apr-17 22:01N 50°42' W 001°59'0 0.0
2018-Apr-17 20:37N 50°42' W 001°59'0 0.0
2018-Apr-17 20:13N 50°42' W 001°59'0 0.0
2018-Apr-17 19:55N 50°42' W 001°59'0 0.0
2018-Apr-17 19:28N 50°42' W 001°59'0 0.0
2018-Apr-17 18:59N 50°42' W 001°59'0 0.1
2018-Apr-17 18:30N 50°42' W 001°59'3 6.7
2018-Apr-17 18:00N 50°40' W 001°56'713.6
2018-Apr-17 17:27N 50°33' W 001°54'2718.3
2018-Apr-17 15:58N 50°08' W 002°11'2615.4
2018-Apr-17 14:15N 49°53' W 002°45'18415.4
2018-Apr-17 02:16N 47°18' W 005°18'719.8
2018-Apr-17 01:55N 47°12' W 005°14'3019.6
2018-Apr-17 00:24N 46°44' W 004°58'1119.3
2018-Apr-16 23:50N 46°34' W 004°52'719.6
2018-Apr-16 23:30N 46°28' W 004°49'1219.1
2018-Apr-16 22:53N 46°17' W 004°43'718.9
2018-Apr-16 22:30N 46°10' W 004°39'1018.9
2018-Apr-16 21:58N 46°01' W 004°34'  
Track history (hours):
 
Tides and Currents Weather Stations Pressure Air Temp Water Temp Dewpoint Dewpoint Depression Visibility Wind Speed Wind Dir Waves Ship Positions

Mn Pelican

Last reported at 2018-Apr-26 21:00 UTC. Time now 2018-Apr-26 21:13 UTC.
Position N 43°33' W 003°08'.

Length 155 m; draft 6.2 m.

Type: Ship. MMSI: 228315700.

Date/timePositionNaut miles runAvg speedWind from/ knotsBaromVisibWave heightAir tempDewpointWater temp
2018-Apr-26 21:00N 43°33' W 003°08'816.0
2018-Apr-26 20:30N 43°25' W 003°06'1 2.4
2018-Apr-26 20:00N 43°26' W 003°07'1 1.8
2018-Apr-26 19:30N 43°27' W 003°06'1 2.1
2018-Apr-26 19:01N 43°26' W 003°04'4 7.8
2018-Apr-26 18:29N 43°22' W 003°04'1 2.0
2018-Apr-26 18:00N 43°21' W 003°04'0 0.0
2018-Apr-26 17:27N 43°21' W 003°04'0 0.0
2018-Apr-26 16:57N 43°21' W 003°04'0 0.0
2018-Apr-26 15:27N 43°21' W 003°04'0 0.0
2018-Apr-26 13:01N 43°21' W 003°04'0 0.0
2018-Apr-26 12:43N 43°21' W 003°04'0 0.0
2018-Apr-26 12:25N 43°21' W 003°04'0 0.0
2018-Apr-26 12:00N 43°21' W 003°04'0 0.0
2018-Apr-26 11:31N 43°21' W 003°04'1 1.7
2018-Apr-26 11:00N 43°22' W 003°03'612.3
2018-Apr-26 10:30N 43°27' W 003°07'816.7
2018-Apr-26 10:00N 43°35' W 003°12'816.4
2018-Apr-26 09:30N 43°43' W 003°16'38114.4
2018-Apr-25 07:05N 50°01' W 004°18'1718.0
2018-Apr-25 06:09N 50°05' W 003°52'618.0
2018-Apr-25 05:47N 50°06' W 003°42'517.7
2018-Apr-25 05:30N 50°08' W 003°35'917.7
2018-Apr-25 05:00N 50°11' W 003°22'917.5
2018-Apr-25 04:30N 50°14' W 003°09'917.2
2018-Apr-25 04:00N 50°16' W 002°56'816.7
2018-Apr-25 03:30N 50°18' W 002°44'2516.6
2018-Apr-25 01:59N 50°27' W 002°06'816.2
2018-Apr-25 01:30N 50°32' W 001°56'714.5
2018-Apr-25 01:00N 50°39' W 001°55'5 0.7
2018-Apr-24 18:29N 50°42' W 001°59'1 2.3
2018-Apr-24 17:59N 50°42' W 001°58'5 9.7
2018-Apr-24 17:26N 50°38' W 001°53'614.7
2018-Apr-24 17:00N 50°31' W 001°53'2115.8
2018-Apr-24 15:40N 50°14' W 002°12'23316.0
2018-Apr-24 01:06N 46°49' W 005°01'1818.9
2018-Apr-24 00:08N 46°32' W 004°51'518.9
2018-Apr-23 23:54N 46°28' W 004°49'16919.1
2018-Apr-23 15:03N 43°51' W 003°21'318.9
2018-Apr-23 14:55N 43°49' W 003°20'718.0
2018-Apr-23 14:30N 43°42' W 003°16'918.0
2018-Apr-23 14:00N 43°34' W 003°11'1019.5
2018-Apr-23 13:30N 43°25' W 003°06'4 7.8
2018-Apr-23 13:00N 43°21' W 003°04'0 0.2
2018-Apr-23 12:28N 43°21' W 003°04'0 0.0
2018-Apr-23 11:57N 43°21' W 003°04'0 0.0
2018-Apr-23 11:27N 43°21' W 003°04'0 0.0
2018-Apr-23 10:57N 43°21' W 003°04'0 0.0
2018-Apr-23 09:57N 43°21' W 003°04'0 0.0
2018-Apr-23 09:26N 43°21' W 003°04'0 0.0
2018-Apr-23 08:56N 43°21' W 003°04'0 0.0
2018-Apr-23 08:26N 43°21' W 003°04'0 0.0
2018-Apr-23 07:56N 43°21' W 003°04'0 0.0
2018-Apr-23 07:26N 43°21' W 003°04'0 0.0
2018-Apr-23 06:55N 43°21' W 003°04'0 0.0
2018-Apr-23 06:25N 43°21' W 003°04'0 0.0
2018-Apr-23 05:55N 43°21' W 003°04'0 0.0
2018-Apr-23 05:30N 43°21' W 003°04'1 2.2
2018-Apr-23 05:00N 43°22' W 003°03'612.2
2018-Apr-23 04:30N 43°27' W 003°07'816.0
2018-Apr-23 04:00N 43°35' W 003°09'4 7.7
2018-Apr-23 03:30N 43°38' W 003°11'612.2
2018-Apr-23 03:01N 43°39' W 003°03'815.1
2018-Apr-23 02:30N 43°39' W 003°13'815.2
2018-Apr-23 01:58N 43°46' W 003°18'21314.1
2018-Apr-22 10:48N 47°04' W 005°10'815.9
2018-Apr-22 10:19N 47°12' W 005°14'516.0
2018-Apr-22 09:59N 47°17' W 005°17'816.2
2018-Apr-22 09:30N 47°24' W 005°21'916.0
2018-Apr-22 08:58N 47°32' W 005°25'9213.1
2018-Apr-22 01:55N 49°04' W 005°24'816.1
2018-Apr-22 01:24N 49°09' W 005°14'615.9
2018-Apr-22 01:01N 49°12' W 005°06'815.5
2018-Apr-22 00:30N 49°16' W 004°55'1115.3
2018-Apr-21 23:46N 49°22' W 004°40'415.1
2018-Apr-21 23:30N 49°24' W 004°35'914.7
2018-Apr-21 22:53N 49°28' W 004°23'714.3
2018-Apr-21 22:22N 49°32' W 004°13'514.1
2018-Apr-21 22:00N 49°34' W 004°06'1814.0
2018-Apr-21 20:43N 49°47' W 003°46'814.0
2018-Apr-21 20:07N 49°52' W 003°36'214.3
2018-Apr-21 19:59N 49°53' W 003°34'714.7
2018-Apr-21 19:30N 49°58' W 003°25'815.5
2018-Apr-21 19:01N 50°02' W 003°15'816.2
2018-Apr-21 18:31N 50°05' W 003°04'816.8
2018-Apr-21 18:00N 50°10' W 002°52'917.3
2018-Apr-21 17:28N 50°14' W 002°40'817.6
2018-Apr-21 17:00N 50°18' W 002°29'917.7
2018-Apr-21 16:29N 50°23' W 002°16'917.4
2018-Apr-21 15:56N 50°28' W 002°03'716.7
2018-Apr-21 15:31N 50°33' W 001°56'612.7
2018-Apr-21 15:00N 50°39' W 001°55'4 7.6
2018-Apr-21 14:28N 50°42' W 001°59'0 0.0
2018-Apr-21 13:58N 50°42' W 001°59'0 0.0
2018-Apr-21 13:28N 50°42' W 001°59'0 0.0
2018-Apr-21 12:52N 50°42' W 001°59'0 0.0
2018-Apr-21 12:21N 50°42' W 001°59'0 0.0
2018-Apr-21 11:57N 50°42' W 001°59'0 0.0
2018-Apr-21 11:27N 50°42' W 001°59'0 0.0
2018-Apr-21 10:51N 50°42' W 001°59'0 0.0
2018-Apr-21 10:15N 50°42' W 001°59'0 0.0
2018-Apr-21 09:32N 50°42' W 001°59'0 0.0
2018-Apr-21 09:27N 50°42' W 001°59'0 0.0
2018-Apr-21 09:01N 50°42' W 001°59'0 0.4
2018-Apr-21 08:30N 50°42' W 001°59'4 8.3
2018-Apr-21 07:58N 50°39' W 001°55'4 7.7
2018-Apr-21 07:31N 50°36' W 001°52'4 8.0
2018-Apr-21 07:00N 50°32' W 001°52'3 6.7
2018-Apr-21 06:30N 50°30' W 001°56'3 6.3
2018-Apr-21 06:01N 50°28' W 002°00'510.7
2018-Apr-21 05:30N 50°23' W 002°02'5 9.1
2018-Apr-21 05:01N 50°19' W 002°04'4 7.9
2018-Apr-21 04:28N 50°15' W 002°07'4 7.9
2018-Apr-21 04:01N 50°11' W 002°09'611.6
2018-Apr-21 03:29N 50°06' W 002°13'715.1
2018-Apr-21 03:00N 49°59' W 002°18'1113.6
2018-Apr-21 02:12N 49°54' W 002°33'414.2
2018-Apr-21 01:56N 49°53' W 002°39'714.5
2018-Apr-21 01:27N 49°51' W 002°49'714.6
2018-Apr-21 01:00N 49°49' W 002°59'2515.0
2018-Apr-20 23:18N 49°36' W 003°33'515.1
2018-Apr-20 22:57N 49°33' W 003°39'715.1
2018-Apr-20 22:30N 49°30' W 003°48'11813.9
2018-Apr-20 14:01N 47°58' W 005°40'015.2
2018-Apr-20 14:00N 47°57' W 005°40'815.4
2018-Apr-20 13:30N 47°50' W 005°37'1215.3
2018-Apr-20 12:42N 47°39' W 005°31'315.3
2018-Apr-20 12:30N 47°36' W 005°29'915.2
2018-Apr-20 11:53N 47°27' W 005°24'615.0
2018-Apr-20 11:30N 47°22' W 005°21'815.0
2018-Apr-20 11:00N 47°15' W 005°17'2915.1
2018-Apr-20 09:04N 46°48' W 005°00'114.7
2018-Apr-20 09:00N 46°47' W 004°60'814.8
2018-Apr-20 08:29N 46°40' W 004°56'715.0
2018-Apr-20 08:00N 46°33' W 004°52'714.7
2018-Apr-20 07:30N 46°26' W 004°48'714.7
2018-Apr-20 07:00N 46°19' W 004°44'714.4
2018-Apr-20 06:30N 46°13' W 004°40'17515.2
2018-Apr-19 19:00N 43°31' W 003°09'715.0
2018-Apr-19 18:30N 43°24' W 003°05'2 1.3
2018-Apr-19 16:43N 43°21' W 003°04'0 0.0
2018-Apr-19 16:19N 43°21' W 003°04'0 0.0
2018-Apr-19 14:36N 43°21' W 003°04'0 0.0
2018-Apr-19 14:30N 43°21' W 003°04'0 0.0
2018-Apr-19 14:00N 43°21' W 003°04'0 0.0
2018-Apr-19 11:40N 43°21' W 003°04'0 0.0
2018-Apr-19 11:25N 43°21' W 003°04'1 2.1
2018-Apr-19 10:48N 43°23' W 003°05'413.8
2018-Apr-19 10:30N 43°26' W 003°07'39513.9
2018-Apr-18 06:02N 49°57' W 004°38'313.8
2018-Apr-18 05:49N 49°58' W 004°34'814.1
2018-Apr-18 05:15N 49°59' W 004°21'314.5
2018-Apr-18 05:00N 50°00' W 004°16'814.3
2018-Apr-18 04:26N 50°03' W 004°04'715.1
2018-Apr-18 04:00N 50°05' W 003°54'816.9
2018-Apr-18 03:30N 50°07' W 003°42'917.8
2018-Apr-18 03:00N 50°09' W 003°28'918.1
2018-Apr-18 02:30N 50°12' W 003°15'918.1
2018-Apr-18 02:00N 50°15' W 003°02'917.9
2018-Apr-18 01:30N 50°18' W 002°48'3216.5
2018-Apr-17 23:35N 50°28' W 002°01'213.9
2018-Apr-17 23:27N 50°29' W 001°59'714.6
2018-Apr-17 23:00N 50°35' W 001°54'612.1
2018-Apr-17 22:29N 50°41' W 001°56'3 5.6
2018-Apr-17 22:01N 50°42' W 001°59'0 0.0
2018-Apr-17 20:37N 50°42' W 001°59'0 0.0
2018-Apr-17 20:13N 50°42' W 001°59'0 0.0
2018-Apr-17 19:55N 50°42' W 001°59'0 0.0
2018-Apr-17 19:28N 50°42' W 001°59'0 0.0
2018-Apr-17 18:59N 50°42' W 001°59'0 0.1
2018-Apr-17 18:30N 50°42' W 001°59'3 6.7
2018-Apr-17 18:00N 50°40' W 001°56'713.6
2018-Apr-17 17:27N 50°33' W 001°54'2718.3
2018-Apr-17 15:58N 50°08' W 002°11'2615.4
2018-Apr-17 14:15N 49°53' W 002°45'18415.4
2018-Apr-17 02:16N 47°18' W 005°18'719.8
2018-Apr-17 01:55N 47°12' W 005°14'3019.6
2018-Apr-17 00:24N 46°44' W 004°58'1119.3
2018-Apr-16 23:50N 46°34' W 004°52'719.6
2018-Apr-16 23:30N 46°28' W 004°49'1219.1
2018-Apr-16 22:53N 46°17' W 004°43'718.9
2018-Apr-16 22:30N 46°10' W 004°39'1018.9
2018-Apr-16 21:58N 46°01' W 004°34'  

Dump ship's entire track history